sensor_id;sensor_type;location;lat;lon;timestamp;P1;durP1;ratioP1;P2;durP2;ratioP2
34775;SDS011;20989;52.566;13.346;2023-05-28T00:00:21;0.90;;;0.90;;
34775;SDS011;20989;52.566;13.346;2023-05-28T00:03:22;0.93;;;0.93;;
34775;SDS011;20989;52.566;13.346;2023-05-28T00:06:23;0.90;;;0.90;;
34775;SDS011;20989;52.566;13.346;2023-05-28T00:09:24;1.50;;;1.40;;
34775;SDS011;20989;52.566;13.346;2023-05-28T00:12:26;1.10;;;1.10;;
34775;SDS011;20989;52.566;13.346;2023-05-28T00:15:26;1.15;;;1.15;;
34775;SDS011;20989;52.566;13.346;2023-05-28T00:18:27;1.60;;;1.50;;
34775;SDS011;20989;52.566;13.346;2023-05-28T00:21:28;1.20;;;1.20;;
34775;SDS011;20989;52.566;13.346;2023-05-28T00:24:32;1.00;;;1.00;;
34775;SDS011;20989;52.566;13.346;2023-05-28T00:27:33;1.00;;;1.00;;
34775;SDS011;20989;52.566;13.346;2023-05-28T00:30:34;1.50;;;1.40;;
34775;SDS011;20989;52.566;13.346;2023-05-28T00:33:35;1.48;;;1.30;;
34775;SDS011;20989;52.566;13.346;2023-05-28T00:36:35;1.40;;;1.30;;
34775;SDS011;20989;52.566;13.346;2023-05-28T00:39:36;1.38;;;1.27;;
34775;SDS011;20989;52.566;13.346;2023-05-28T00:42:37;1.10;;;1.10;;
34775;SDS011;20989;52.566;13.346;2023-05-28T00:45:38;1.27;;;1.20;;
34775;SDS011;20989;52.566;13.346;2023-05-28T00:48:39;1.27;;;1.20;;
34775;SDS011;20989;52.566;13.346;2023-05-28T00:51:39;1.33;;;1.23;;
34775;SDS011;20989;52.566;13.346;2023-05-28T00:54:41;1.10;;;1.10;;
34775;SDS011;20989;52.566;13.346;2023-05-28T00:57:43;1.08;;;1.08;;
34775;SDS011;20989;52.566;13.346;2023-05-28T01:00:46;1.45;;;1.35;;
34775;SDS011;20989;52.566;13.346;2023-05-28T01:03:47;1.20;;;1.10;;
34775;SDS011;20989;52.566;13.346;2023-05-28T01:06:47;1.17;;;1.15;;
34775;SDS011;20989;52.566;13.346;2023-05-28T01:09:49;1.00;;;1.00;;
34775;SDS011;20989;52.566;13.346;2023-05-28T01:12:49;1.20;;;1.10;;
34775;SDS011;20989;52.566;13.346;2023-05-28T01:15:51;1.52;;;1.42;;
34775;SDS011;20989;52.566;13.346;2023-05-28T01:18:52;1.30;;;1.20;;
34775;SDS011;20989;52.566;13.346;2023-05-28T01:21:56;1.27;;;1.17;;
34775;SDS011;20989;52.566;13.346;2023-05-28T01:25:06;1.65;;;1.33;;
34775;SDS011;20989;52.566;13.346;2023-05-28T01:28:12;1.60;;;1.25;;
34775;SDS011;20989;52.566;13.346;2023-05-28T01:31:14;1.27;;;1.27;;
34775;SDS011;20989;52.566;13.346;2023-05-28T01:34:16;1.67;;;1.48;;
34775;SDS011;20989;52.566;13.346;2023-05-28T01:37:17;1.40;;;1.30;;
34775;SDS011;20989;52.566;13.346;2023-05-28T01:40:19;1.10;;;1.10;;
34775;SDS011;20989;52.566;13.346;2023-05-28T01:43:21;1.35;;;1.25;;
34775;SDS011;20989;52.566;13.346;2023-05-28T01:46:22;1.58;;;1.42;;
34775;SDS011;20989;52.566;13.346;2023-05-28T01:49:23;1.52;;;1.42;;
34775;SDS011;20989;52.566;13.346;2023-05-28T01:52:24;1.42;;;1.33;;
34775;SDS011;20989;52.566;13.346;2023-05-28T01:55:25;1.20;;;1.10;;
34775;SDS011;20989;52.566;13.346;2023-05-28T01:58:26;1.45;;;1.35;;
34775;SDS011;20989;52.566;13.346;2023-05-28T02:01:28;1.30;;;1.15;;
34775;SDS011;20989;52.566;13.346;2023-05-28T02:04:30;1.33;;;1.23;;
34775;SDS011;20989;52.566;13.346;2023-05-28T02:07:31;1.50;;;1.40;;
34775;SDS011;20989;52.566;13.346;2023-05-28T02:10:33;1.40;;;1.30;;
34775;SDS011;20989;52.566;13.346;2023-05-28T02:13:35;1.10;;;1.10;;
34775;SDS011;20989;52.566;13.346;2023-05-28T02:16:37;1.48;;;1.38;;
34775;SDS011;20989;52.566;13.346;2023-05-28T02:19:39;1.30;;;1.20;;
34775;SDS011;20989;52.566;13.346;2023-05-28T02:22:41;1.60;;;1.50;;
34775;SDS011;20989;52.566;13.346;2023-05-28T02:25:42;1.10;;;1.10;;
34775;SDS011;20989;52.566;13.346;2023-05-28T02:28:43;1.63;;;1.52;;
34775;SDS011;20989;52.566;13.346;2023-05-28T02:31:44;1.50;;;1.40;;
34775;SDS011;20989;52.566;13.346;2023-05-28T02:34:45;1.15;;;1.15;;
34775;SDS011;20989;52.566;13.346;2023-05-28T02:37:46;1.00;;;1.00;;
34775;SDS011;20989;52.566;13.346;2023-05-28T02:40:46;1.40;;;1.30;;
34775;SDS011;20989;52.566;13.346;2023-05-28T02:43:47;0.98;;;0.98;;
34775;SDS011;20989;52.566;13.346;2023-05-28T02:46:48;1.00;;;1.00;;
34775;SDS011;20989;52.566;13.346;2023-05-28T02:49:48;1.13;;;1.13;;
34775;SDS011;20989;52.566;13.346;2023-05-28T02:52:50;1.05;;;1.05;;
34775;SDS011;20989;52.566;13.346;2023-05-28T02:55:51;1.10;;;1.10;;
34775;SDS011;20989;52.566;13.346;2023-05-28T02:58:51;1.13;;;1.10;;
34775;SDS011;20989;52.566;13.346;2023-05-28T03:01:53;1.27;;;1.17;;
34775;SDS011;20989;52.566;13.346;2023-05-28T03:04:53;1.52;;;1.42;;
34775;SDS011;20989;52.566;13.346;2023-05-28T03:07:54;2.42;;;1.52;;
34775;SDS011;20989;52.566;13.346;2023-05-28T03:10:55;1.30;;;1.20;;
34775;SDS011;20989;52.566;13.346;2023-05-28T03:13:55;1.60;;;1.50;;
34775;SDS011;20989;52.566;13.346;2023-05-28T03:16:56;1.60;;;1.50;;
34775;SDS011;20989;52.566;13.346;2023-05-28T03:19:57;1.60;;;1.50;;
34775;SDS011;20989;52.566;13.346;2023-05-28T03:22:57;1.50;;;1.40;;
34775;SDS011;20989;52.566;13.346;2023-05-28T03:25:58;1.35;;;1.25;;
34775;SDS011;20989;52.566;13.346;2023-05-28T03:28:59;1.40;;;1.30;;
34775;SDS011;20989;52.566;13.346;2023-05-28T03:32:00;1.75;;;1.65;;
34775;SDS011;20989;52.566;13.346;2023-05-28T03:35:01;1.10;;;1.00;;
34775;SDS011;20989;52.566;13.346;2023-05-28T03:38:01;1.30;;;1.20;;
34775;SDS011;20989;52.566;13.346;2023-05-28T03:41:02;1.38;;;1.27;;
34775;SDS011;20989;52.566;13.346;2023-05-28T03:44:03;1.30;;;1.20;;
34775;SDS011;20989;52.566;13.346;2023-05-28T03:47:04;1.50;;;1.40;;
34775;SDS011;20989;52.566;13.346;2023-05-28T03:50:05;1.17;;;1.17;;
34775;SDS011;20989;52.566;13.346;2023-05-28T03:53:06;1.50;;;1.40;;
34775;SDS011;20989;52.566;13.346;2023-05-28T03:56:07;1.40;;;1.30;;
34775;SDS011;20989;52.566;13.346;2023-05-28T04:03:05;1.55;;;1.45;;
34775;SDS011;20989;52.566;13.346;2023-05-28T04:06:05;1.45;;;1.35;;
34775;SDS011;20989;52.566;13.346;2023-05-28T04:09:08;1.45;;;1.35;;
34775;SDS011;20989;52.566;13.346;2023-05-28T04:12:08;1.50;;;1.40;;
34775;SDS011;20989;52.566;13.346;2023-05-28T04:15:10;1.40;;;1.30;;
34775;SDS011;20989;52.566;13.346;2023-05-28T04:18:11;1.40;;;1.30;;
34775;SDS011;20989;52.566;13.346;2023-05-28T04:21:12;1.25;;;1.20;;
34775;SDS011;20989;52.566;13.346;2023-05-28T04:24:13;1.45;;;1.35;;
34775;SDS011;20989;52.566;13.346;2023-05-28T04:27:13;1.30;;;1.20;;
34775;SDS011;20989;52.566;13.346;2023-05-28T04:30:15;1.50;;;1.40;;
34775;SDS011;20989;52.566;13.346;2023-05-28T04:33:17;1.30;;;1.20;;
34775;SDS011;20989;52.566;13.346;2023-05-28T04:36:21;1.23;;;1.23;;
34775;SDS011;20989;52.566;13.346;2023-05-28T04:39:29;1.63;;;1.52;;
34775;SDS011;20989;52.566;13.346;2023-05-28T04:42:30;1.60;;;1.50;;
34775;SDS011;20989;52.566;13.346;2023-05-28T04:45:30;1.40;;;1.30;;
34775;SDS011;20989;52.566;13.346;2023-05-28T04:48:32;1.25;;;1.20;;
34775;SDS011;20989;52.566;13.346;2023-05-28T04:51:35;1.58;;;1.48;;
34775;SDS011;20989;52.566;13.346;2023-05-28T04:54:36;1.40;;;1.30;;
34775;SDS011;20989;52.566;13.346;2023-05-28T04:57:37;1.25;;;1.15;;
34775;SDS011;20989;52.566;13.346;2023-05-28T05:00:38;1.45;;;1.35;;
34775;SDS011;20989;52.566;13.346;2023-05-28T05:03:38;1.30;;;1.20;;
34775;SDS011;20989;52.566;13.346;2023-05-28T05:06:39;1.15;;;1.15;;
34775;SDS011;20989;52.566;13.346;2023-05-28T05:09:40;1.55;;;1.45;;
34775;SDS011;20989;52.566;13.346;2023-05-28T05:12:41;1.35;;;1.27;;
34775;SDS011;20989;52.566;13.346;2023-05-28T05:15:41;1.52;;;1.42;;
34775;SDS011;20989;52.566;13.346;2023-05-28T05:18:42;1.40;;;1.30;;
34775;SDS011;20989;52.566;13.346;2023-05-28T05:21:43;1.40;;;1.30;;
34775;SDS011;20989;52.566;13.346;2023-05-28T05:24:45;1.23;;;1.15;;
34775;SDS011;20989;52.566;13.346;2023-05-28T05:27:50;1.42;;;1.33;;
34775;SDS011;20989;52.566;13.346;2023-05-28T05:30:50;1.65;;;1.55;;
34775;SDS011;20989;52.566;13.346;2023-05-28T05:33:51;1.10;;;1.10;;
34775;SDS011;20989;52.566;13.346;2023-05-28T05:36:52;1.60;;;1.50;;
34775;SDS011;20989;52.566;13.346;2023-05-28T05:39:52;1.50;;;1.40;;
34775;SDS011;20989;52.566;13.346;2023-05-28T05:42:53;1.02;;;1.02;;
34775;SDS011;20989;52.566;13.346;2023-05-28T05:45:54;1.83;;;1.70;;
34775;SDS011;20989;52.566;13.346;2023-05-28T05:48:54;1.33;;;1.23;;
34775;SDS011;20989;52.566;13.346;2023-05-28T05:51:55;1.17;;;1.13;;
34775;SDS011;20989;52.566;13.346;2023-05-28T05:54:55;1.50;;;1.40;;
34775;SDS011;20989;52.566;13.346;2023-05-28T05:57:56;1.15;;;1.15;;
34775;SDS011;20989;52.566;13.346;2023-05-28T06:00:58;0.93;;;0.93;;
34775;SDS011;20989;52.566;13.346;2023-05-28T06:03:59;1.00;;;1.00;;
34775;SDS011;20989;52.566;13.346;2023-05-28T06:07:00;1.30;;;1.10;;
34775;SDS011;20989;52.566;13.346;2023-05-28T06:10:06;1.30;;;1.20;;
34775;SDS011;20989;52.566;13.346;2023-05-28T06:13:07;1.17;;;1.10;;
34775;SDS011;20989;52.566;13.346;2023-05-28T06:16:08;1.33;;;1.23;;
34775;SDS011;20989;52.566;13.346;2023-05-28T06:19:08;1.50;;;1.40;;
34775;SDS011;20989;52.566;13.346;2023-05-28T06:22:10;1.08;;;1.08;;
34775;SDS011;20989;52.566;13.346;2023-05-28T06:25:10;1.02;;;1.00;;
34775;SDS011;20989;52.566;13.346;2023-05-28T06:28:12;1.00;;;1.00;;
34775;SDS011;20989;52.566;13.346;2023-05-28T06:31:12;1.67;;;1.10;;
34775;SDS011;20989;52.566;13.346;2023-05-28T06:34:13;1.08;;;1.00;;
34775;SDS011;20989;52.566;13.346;2023-05-28T06:37:14;1.05;;;1.05;;
34775;SDS011;20989;52.566;13.346;2023-05-28T06:40:14;1.40;;;1.30;;
34775;SDS011;20989;52.566;13.346;2023-05-28T06:43:15;1.20;;;1.10;;
34775;SDS011;20989;52.566;13.346;2023-05-28T06:46:16;1.45;;;1.35;;
34775;SDS011;20989;52.566;13.346;2023-05-28T06:49:16;1.42;;;1.33;;
34775;SDS011;20989;52.566;13.346;2023-05-28T06:52:17;1.02;;;1.02;;
34775;SDS011;20989;52.566;13.346;2023-05-28T06:55:19;1.25;;;1.15;;
34775;SDS011;20989;52.566;13.346;2023-05-28T06:58:19;0.90;;;0.90;;
34775;SDS011;20989;52.566;13.346;2023-05-28T07:01:20;1.30;;;1.20;;
34775;SDS011;20989;52.566;13.346;2023-05-28T07:04:21;3.25;;;1.38;;
34775;SDS011;20989;52.566;13.346;2023-05-28T07:07:22;4.13;;;1.58;;
34775;SDS011;20989;52.566;13.346;2023-05-28T07:10:22;1.40;;;1.13;;
34775;SDS011;20989;52.566;13.346;2023-05-28T07:13:23;1.50;;;1.10;;
34775;SDS011;20989;52.566;13.346;2023-05-28T07:16:24;1.30;;;1.20;;
34775;SDS011;20989;52.566;13.346;2023-05-28T07:19:25;3.03;;;1.20;;
34775;SDS011;20989;52.566;13.346;2023-05-28T07:22:26;1.48;;;1.38;;
34775;SDS011;20989;52.566;13.346;2023-05-28T07:25:27;5.55;;;1.40;;
34775;SDS011;20989;52.566;13.346;2023-05-28T07:28:27;6.95;;;1.40;;
34775;SDS011;20989;52.566;13.346;2023-05-28T07:31:28;2.35;;;1.25;;
34775;SDS011;20989;52.566;13.346;2023-05-28T07:34:31;3.53;;;1.38;;
34775;SDS011;20989;52.566;13.346;2023-05-28T07:37:32;6.85;;;1.20;;
34775;SDS011;20989;52.566;13.346;2023-05-28T07:40:32;3.28;;;1.40;;
34775;SDS011;20989;52.566;13.346;2023-05-28T07:43:34;1.23;;;0.98;;
34775;SDS011;20989;52.566;13.346;2023-05-28T07:46:36;2.10;;;1.30;;
34775;SDS011;20989;52.566;13.346;2023-05-28T07:49:37;1.75;;;1.30;;
34775;SDS011;20989;52.566;13.346;2023-05-28T07:52:37;2.40;;;0.98;;
34775;SDS011;20989;52.566;13.346;2023-05-28T07:55:40;1.40;;;1.10;;
34775;SDS011;20989;52.566;13.346;2023-05-28T07:58:44;3.55;;;1.20;;
34775;SDS011;20989;52.566;13.346;2023-05-28T08:01:45;1.15;;;1.05;;
34775;SDS011;20989;52.566;13.346;2023-05-28T08:04:46;1.23;;;1.13;;
34775;SDS011;20989;52.566;13.346;2023-05-28T08:07:47;1.92;;;1.10;;
34775;SDS011;20989;52.566;13.346;2023-05-28T08:10:48;1.83;;;1.20;;
34775;SDS011;20989;52.566;13.346;2023-05-28T08:13:49;2.40;;;1.20;;
34775;SDS011;20989;52.566;13.346;2023-05-28T08:16:49;1.50;;;1.20;;
34775;SDS011;20989;52.566;13.346;2023-05-28T08:19:50;2.45;;;1.33;;
34775;SDS011;20989;52.566;13.346;2023-05-28T08:22:51;1.23;;;1.13;;
34775;SDS011;20989;52.566;13.346;2023-05-28T08:25:51;2.00;;;1.10;;
34775;SDS011;20989;52.566;13.346;2023-05-28T08:28:52;1.45;;;1.15;;
34775;SDS011;20989;52.566;13.346;2023-05-28T08:31:52;1.35;;;0.95;;
34775;SDS011;20989;52.566;13.346;2023-05-28T08:34:53;1.30;;;1.20;;
34775;SDS011;20989;52.566;13.346;2023-05-28T08:37:54;2.88;;;1.05;;
34775;SDS011;20989;52.566;13.346;2023-05-28T08:40:55;2.97;;;1.10;;
34775;SDS011;20989;52.566;13.346;2023-05-28T08:43:56;1.17;;;1.08;;
34775;SDS011;20989;52.566;13.346;2023-05-28T08:46:56;1.30;;;1.20;;
34775;SDS011;20989;52.566;13.346;2023-05-28T08:50:01;2.25;;;1.00;;
34775;SDS011;20989;52.566;13.346;2023-05-28T08:53:03;1.13;;;1.00;;
34775;SDS011;20989;52.566;13.346;2023-05-28T08:56:07;1.52;;;1.42;;
34775;SDS011;20989;52.566;13.346;2023-05-28T08:59:09;1.67;;;1.23;;
34775;SDS011;20989;52.566;13.346;2023-05-28T09:02:13;1.00;;;1.00;;
34775;SDS011;20989;52.566;13.346;2023-05-28T09:05:14;3.72;;;1.20;;
34775;SDS011;20989;52.566;13.346;2023-05-28T09:08:15;1.20;;;1.10;;
34775;SDS011;20989;52.566;13.346;2023-05-28T09:11:18;1.20;;;0.95;;
34775;SDS011;20989;52.566;13.346;2023-05-28T09:14:18;1.88;;;1.02;;
34775;SDS011;20989;52.566;13.346;2023-05-28T09:17:31;1.60;;;1.13;;
34775;SDS011;20989;52.566;13.346;2023-05-28T09:20:36;1.25;;;0.90;;
34775;SDS011;20989;52.566;13.346;2023-05-28T09:23:40;1.58;;;0.95;;
34775;SDS011;20989;52.566;13.346;2023-05-28T09:26:41;0.82;;;0.82;;
34775;SDS011;20989;52.566;13.346;2023-05-28T09:29:41;2.58;;;1.10;;
34775;SDS011;20989;52.566;13.346;2023-05-28T09:32:42;6.25;;;1.10;;
34775;SDS011;20989;52.566;13.346;2023-05-28T09:35:43;4.35;;;1.00;;
34775;SDS011;20989;52.566;13.346;2023-05-28T09:38:44;3.50;;;1.30;;
34775;SDS011;20989;52.566;13.346;2023-05-28T09:41:45;9.40;;;1.85;;
34775;SDS011;20989;52.566;13.346;2023-05-28T09:44:46;3.00;;;1.10;;
34775;SDS011;20989;52.566;13.346;2023-05-28T09:47:48;1.30;;;1.20;;
34775;SDS011;20989;52.566;13.346;2023-05-28T09:50:49;6.35;;;1.45;;
34775;SDS011;20989;52.566;13.346;2023-05-28T09:53:53;1.80;;;1.08;;
34775;SDS011;20989;52.566;13.346;2023-05-28T09:56:58;5.45;;;1.63;;
34775;SDS011;20989;52.566;13.346;2023-05-28T10:00:01;4.00;;;1.00;;
34775;SDS011;20989;52.566;13.346;2023-05-28T10:06:21;7.47;;;1.60;;
34775;SDS011;20989;52.566;13.346;2023-05-28T10:09:26;2.13;;;0.90;;
34775;SDS011;20989;52.566;13.346;2023-05-28T10:12:30;3.30;;;1.52;;
34775;SDS011;20989;52.566;13.346;2023-05-28T10:15:31;2.50;;;1.23;;
34775;SDS011;20989;52.566;13.346;2023-05-28T10:18:32;3.00;;;1.10;;
34775;SDS011;20989;52.566;13.346;2023-05-28T10:21:34;3.35;;;1.10;;
34775;SDS011;20989;52.566;13.346;2023-05-28T10:24:35;1.05;;;1.02;;
34775;SDS011;20989;52.566;13.346;2023-05-28T10:27:37;3.53;;;1.15;;
34775;SDS011;20989;52.566;13.346;2023-05-28T10:31:01;2.35;;;1.27;;
34775;SDS011;20989;52.566;13.346;2023-05-28T10:34:19;1.25;;;1.15;;
34775;SDS011;20989;52.566;13.346;2023-05-28T10:37:22;3.15;;;1.23;;
34775;SDS011;20989;52.566;13.346;2023-05-28T10:40:23;1.30;;;1.17;;
34775;SDS011;20989;52.566;13.346;2023-05-28T10:43:43;1.73;;;1.15;;
34775;SDS011;20989;52.566;13.346;2023-05-28T10:46:45;3.15;;;0.90;;
34775;SDS011;20989;52.566;13.346;2023-05-28T10:50:02;1.27;;;0.80;;
34775;SDS011;20989;52.566;13.346;2023-05-28T10:53:17;1.10;;;1.10;;
34775;SDS011;20989;52.566;13.346;2023-05-28T10:56:18;1.17;;;1.05;;
34775;SDS011;20989;52.566;13.346;2023-05-28T10:59:19;1.42;;;0.88;;
34775;SDS011;20989;52.566;13.346;2023-05-28T11:02:47;1.15;;;1.00;;
34775;SDS011;20989;52.566;13.346;2023-05-28T11:05:50;0.93;;;0.80;;
34775;SDS011;20989;52.566;13.346;2023-05-28T11:08:51;0.93;;;0.77;;
34775;SDS011;20989;52.566;13.346;2023-05-28T11:11:52;1.52;;;1.17;;
34775;SDS011;20989;52.566;13.346;2023-05-28T11:14:57;1.10;;;0.98;;
34775;SDS011;20989;52.566;13.346;2023-05-28T11:17:58;1.45;;;1.00;;
34775;SDS011;20989;52.566;13.346;2023-05-28T11:21:02;1.10;;;1.10;;
34775;SDS011;20989;52.566;13.346;2023-05-28T11:24:07;1.13;;;1.10;;
34775;SDS011;20989;52.566;13.346;2023-05-28T11:27:08;1.73;;;0.90;;
34775;SDS011;20989;52.566;13.346;2023-05-28T11:30:10;0.93;;;0.90;;
34775;SDS011;20989;52.566;13.346;2023-05-28T11:33:12;1.75;;;0.93;;
34775;SDS011;20989;52.566;13.346;2023-05-28T11:36:15;2.45;;;1.10;;
34775;SDS011;20989;52.566;13.346;2023-05-28T11:39:15;1.73;;;1.30;;
34775;SDS011;20989;52.566;13.346;2023-05-28T11:42:17;3.33;;;0.90;;
34775;SDS011;20989;52.566;13.346;2023-05-28T11:45:19;1.63;;;1.08;;
34775;SDS011;20989;52.566;13.346;2023-05-28T11:48:20;1.33;;;0.80;;
34775;SDS011;20989;52.566;13.346;2023-05-28T11:51:20;1.10;;;1.00;;
34775;SDS011;20989;52.566;13.346;2023-05-28T11:54:22;1.33;;;1.23;;
34775;SDS011;20989;52.566;13.346;2023-05-28T11:57:24;1.88;;;1.20;;
34775;SDS011;20989;52.566;13.346;2023-05-28T12:00:29;1.02;;;1.02;;
34775;SDS011;20989;52.566;13.346;2023-05-28T12:03:33;1.27;;;1.17;;
34775;SDS011;20989;52.566;13.346;2023-05-28T12:06:48;1.20;;;1.10;;
34775;SDS011;20989;52.566;13.346;2023-05-28T12:10:00;1.35;;;1.25;;
34775;SDS011;20989;52.566;13.346;2023-05-28T12:13:08;0.93;;;0.90;;
34775;SDS011;20989;52.566;13.346;2023-05-28T12:16:12;1.08;;;0.98;;
34775;SDS011;20989;52.566;13.346;2023-05-28T12:19:14;2.25;;;1.00;;
34775;SDS011;20989;52.566;13.346;2023-05-28T12:22:16;1.70;;;1.00;;
34775;SDS011;20989;52.566;13.346;2023-05-28T12:25:18;1.00;;;1.00;;
34775;SDS011;20989;52.566;13.346;2023-05-28T12:28:20;1.33;;;1.00;;
34775;SDS011;20989;52.566;13.346;2023-05-28T12:31:26;1.38;;;0.88;;
34775;SDS011;20989;52.566;13.346;2023-05-28T12:34:28;1.38;;;1.10;;
34775;SDS011;20989;52.566;13.346;2023-05-28T12:37:29;1.60;;;0.73;;
34775;SDS011;20989;52.566;13.346;2023-05-28T12:40:30;1.23;;;1.13;;
34775;SDS011;20989;52.566;13.346;2023-05-28T12:43:31;1.45;;;1.10;;
34775;SDS011;20989;52.566;13.346;2023-05-28T12:46:31;3.85;;;0.98;;
34775;SDS011;20989;52.566;13.346;2023-05-28T12:49:32;0.98;;;0.98;;
34775;SDS011;20989;52.566;13.346;2023-05-28T12:52:33;1.00;;;1.00;;
34775;SDS011;20989;52.566;13.346;2023-05-28T12:55:34;0.80;;;0.80;;
34775;SDS011;20989;52.566;13.346;2023-05-28T12:58:35;0.63;;;0.63;;
34775;SDS011;20989;52.566;13.346;2023-05-28T13:01:36;4.00;;;1.30;;
34775;SDS011;20989;52.566;13.346;2023-05-28T13:04:37;1.15;;;0.90;;
34775;SDS011;20989;52.566;13.346;2023-05-28T13:07:37;1.30;;;1.20;;
34775;SDS011;20989;52.566;13.346;2023-05-28T13:10:38;1.17;;;0.80;;
34775;SDS011;20989;52.566;13.346;2023-05-28T13:13:39;3.90;;;1.20;;
34775;SDS011;20989;52.566;13.346;2023-05-28T13:16:40;1.17;;;1.13;;
34775;SDS011;20989;52.566;13.346;2023-05-28T13:19:40;1.30;;;0.95;;
34775;SDS011;20989;52.566;13.346;2023-05-28T13:22:41;1.05;;;1.00;;
34775;SDS011;20989;52.566;13.346;2023-05-28T13:25:42;1.20;;;1.10;;
34775;SDS011;20989;52.566;13.346;2023-05-28T13:28:43;1.10;;;0.90;;
34775;SDS011;20989;52.566;13.346;2023-05-28T13:31:44;1.52;;;1.10;;
34775;SDS011;20989;52.566;13.346;2023-05-28T13:34:45;1.08;;;0.90;;
34775;SDS011;20989;52.566;13.346;2023-05-28T13:37:46;1.58;;;0.90;;
34775;SDS011;20989;52.566;13.346;2023-05-28T13:40:47;1.15;;;0.90;;
34775;SDS011;20989;52.566;13.346;2023-05-28T13:43:47;0.70;;;0.70;;
34775;SDS011;20989;52.566;13.346;2023-05-28T13:46:48;3.03;;;1.17;;
34775;SDS011;20989;52.566;13.346;2023-05-28T13:49:49;3.70;;;0.95;;
34775;SDS011;20989;52.566;13.346;2023-05-28T13:52:50;0.82;;;0.82;;
34775;SDS011;20989;52.566;13.346;2023-05-28T13:55:51;1.40;;;1.30;;
34775;SDS011;20989;52.566;13.346;2023-05-28T13:58:51;1.20;;;1.10;;
34775;SDS011;20989;52.566;13.346;2023-05-28T14:01:52;0.90;;;0.90;;
34775;SDS011;20989;52.566;13.346;2023-05-28T14:04:53;1.55;;;0.73;;
34775;SDS011;20989;52.566;13.346;2023-05-28T14:07:54;1.00;;;0.90;;
34775;SDS011;20989;52.566;13.346;2023-05-28T14:10:54;0.90;;;0.90;;
34775;SDS011;20989;52.566;13.346;2023-05-28T14:13:55;1.15;;;1.02;;
34775;SDS011;20989;52.566;13.346;2023-05-28T14:16:57;1.13;;;0.90;;
34775;SDS011;20989;52.566;13.346;2023-05-28T14:19:57;1.38;;;0.80;;
34775;SDS011;20989;52.566;13.346;2023-05-28T14:22:58;2.88;;;1.10;;
34775;SDS011;20989;52.566;13.346;2023-05-28T14:25:59;0.80;;;0.80;;
34775;SDS011;20989;52.566;13.346;2023-05-28T14:29:00;0.90;;;0.90;;
34775;SDS011;20989;52.566;13.346;2023-05-28T14:32:01;1.08;;;1.02;;
34775;SDS011;20989;52.566;13.346;2023-05-28T14:35:01;2.45;;;0.80;;
34775;SDS011;20989;52.566;13.346;2023-05-28T14:38:02;0.88;;;0.85;;
34775;SDS011;20989;52.566;13.346;2023-05-28T14:41:03;1.25;;;1.15;;
34775;SDS011;20989;52.566;13.346;2023-05-28T14:44:04;1.10;;;1.02;;
34775;SDS011;20989;52.566;13.346;2023-05-28T14:47:05;0.93;;;0.80;;
34775;SDS011;20989;52.566;13.346;2023-05-28T14:50:07;0.82;;;0.82;;
34775;SDS011;20989;52.566;13.346;2023-05-28T14:53:08;0.75;;;0.75;;
34775;SDS011;20989;52.566;13.346;2023-05-28T14:56:10;1.00;;;1.00;;
34775;SDS011;20989;52.566;13.346;2023-05-28T14:59:10;0.90;;;0.88;;
34775;SDS011;20989;52.566;13.346;2023-05-28T15:02:11;1.15;;;0.90;;
34775;SDS011;20989;52.566;13.346;2023-05-28T15:05:12;2.08;;;1.10;;
34775;SDS011;20989;52.566;13.346;2023-05-28T15:08:14;0.60;;;0.60;;
34775;SDS011;20989;52.566;13.346;2023-05-28T15:11:15;1.50;;;0.75;;
34775;SDS011;20989;52.566;13.346;2023-05-28T15:14:16;0.85;;;0.85;;
34775;SDS011;20989;52.566;13.346;2023-05-28T15:17:17;1.30;;;1.08;;
34775;SDS011;20989;52.566;13.346;2023-05-28T15:20:20;1.38;;;1.10;;
34775;SDS011;20989;52.566;13.346;2023-05-28T15:23:21;4.00;;;0.90;;
34775;SDS011;20989;52.566;13.346;2023-05-28T15:26:22;6.05;;;1.23;;
34775;SDS011;20989;52.566;13.346;2023-05-28T15:29:23;3.10;;;0.95;;
34775;SDS011;20989;52.566;13.346;2023-05-28T15:32:23;3.80;;;1.20;;
34775;SDS011;20989;52.566;13.346;2023-05-28T15:35:26;8.77;;;1.80;;
34775;SDS011;20989;52.566;13.346;2023-05-28T15:38:27;0.98;;;0.80;;
34775;SDS011;20989;52.566;13.346;2023-05-28T15:41:29;4.38;;;1.05;;
34775;SDS011;20989;52.566;13.346;2023-05-28T15:44:29;2.55;;;0.68;;
34775;SDS011;20989;52.566;13.346;2023-05-28T15:47:30;2.75;;;1.13;;
34775;SDS011;20989;52.566;13.346;2023-05-28T15:50:31;2.03;;;0.93;;
34775;SDS011;20989;52.566;13.346;2023-05-28T15:53:33;1.65;;;0.93;;
34775;SDS011;20989;52.566;13.346;2023-05-28T15:56:34;2.00;;;1.17;;
34775;SDS011;20989;52.566;13.346;2023-05-28T15:59:35;3.85;;;1.00;;
34775;SDS011;20989;52.566;13.346;2023-05-28T16:02:41;1.83;;;1.13;;
34775;SDS011;20989;52.566;13.346;2023-05-28T16:05:43;3.22;;;1.10;;
34775;SDS011;20989;52.566;13.346;2023-05-28T16:08:44;2.55;;;0.95;;
34775;SDS011;20989;52.566;13.346;2023-05-28T16:11:46;0.90;;;0.90;;
34775;SDS011;20989;52.566;13.346;2023-05-28T16:14:50;2.22;;;1.08;;
34775;SDS011;20989;52.566;13.346;2023-05-28T16:17:53;2.42;;;1.02;;
34775;SDS011;20989;52.566;13.346;2023-05-28T16:20:55;2.58;;;1.33;;
34775;SDS011;20989;52.566;13.346;2023-05-28T16:23:56;2.38;;;1.00;;
34775;SDS011;20989;52.566;13.346;2023-05-28T16:26:56;2.38;;;1.20;;
34775;SDS011;20989;52.566;13.346;2023-05-28T16:29:57;1.35;;;0.90;;
34775;SDS011;20989;52.566;13.346;2023-05-28T16:32:58;5.13;;;1.17;;
34775;SDS011;20989;52.566;13.346;2023-05-28T16:35:59;4.32;;;1.00;;
34775;SDS011;20989;52.566;13.346;2023-05-28T16:39:02;1.48;;;0.98;;
34775;SDS011;20989;52.566;13.346;2023-05-28T16:42:03;2.60;;;0.80;;
34775;SDS011;20989;52.566;13.346;2023-05-28T16:45:05;2.08;;;1.20;;
34775;SDS011;20989;52.566;13.346;2023-05-28T16:48:06;2.63;;;1.20;;
34775;SDS011;20989;52.566;13.346;2023-05-28T16:51:07;3.40;;;1.15;;
34775;SDS011;20989;52.566;13.346;2023-05-28T16:54:09;1.73;;;0.90;;
34775;SDS011;20989;52.566;13.346;2023-05-28T16:57:11;1.02;;;0.93;;
34775;SDS011;20989;52.566;13.346;2023-05-28T17:00:13;3.83;;;1.15;;
34775;SDS011;20989;52.566;13.346;2023-05-28T17:03:20;0.88;;;0.80;;
34775;SDS011;20989;52.566;13.346;2023-05-28T17:06:21;0.88;;;0.80;;
34775;SDS011;20989;52.566;13.346;2023-05-28T17:09:22;8.45;;;0.77;;
34775;SDS011;20989;52.566;13.346;2023-05-28T17:12:23;4.03;;;1.00;;
34775;SDS011;20989;52.566;13.346;2023-05-28T17:15:23;3.00;;;1.08;;
34775;SDS011;20989;52.566;13.346;2023-05-28T17:18:25;4.10;;;0.88;;
34775;SDS011;20989;52.566;13.346;2023-05-28T17:21:26;8.00;;;0.98;;
34775;SDS011;20989;52.566;13.346;2023-05-28T17:24:26;7.30;;;1.33;;
34775;SDS011;20989;52.566;13.346;2023-05-28T17:27:27;1.95;;;1.15;;
34775;SDS011;20989;52.566;13.346;2023-05-28T17:30:28;1.67;;;1.15;;
34775;SDS011;20989;52.566;13.346;2023-05-28T17:33:29;8.68;;;1.10;;
34775;SDS011;20989;52.566;13.346;2023-05-28T17:36:30;69.93;;;5.47;;
34775;SDS011;20989;52.566;13.346;2023-05-28T17:39:31;5.15;;;1.33;;
34775;SDS011;20989;52.566;13.346;2023-05-28T17:42:32;17.48;;;2.58;;
34775;SDS011;20989;52.566;13.346;2023-05-28T17:45:33;24.38;;;3.35;;
34775;SDS011;20989;52.566;13.346;2023-05-28T17:48:33;23.52;;;3.25;;
34775;SDS011;20989;52.566;13.346;2023-05-28T17:51:34;13.98;;;3.25;;
34775;SDS011;20989;52.566;13.346;2023-05-28T17:54:35;26.30;;;3.80;;
34775;SDS011;20989;52.566;13.346;2023-05-28T17:57:36;50.28;;;6.15;;
34775;SDS011;20989;52.566;13.346;2023-05-28T18:00:37;45.03;;;5.35;;
34775;SDS011;20989;52.566;13.346;2023-05-28T18:03:37;37.25;;;3.72;;